sensor_id;sensor_type;location;lat;lon;timestamp;P1;durP1;ratioP1;P2;durP2;ratioP2
52320;SDS011;38261;54.090;13.382;2023-01-01T00:01:10;6.93;;;4.50;;
52320;SDS011;38261;54.090;13.382;2023-01-01T00:02:34;9.17;;;3.90;;
52320;SDS011;38261;54.090;13.382;2023-01-01T00:03:58;6.23;;;3.17;;
52320;SDS011;38261;54.090;13.382;2023-01-01T00:05:20;4.50;;;3.43;;
52320;SDS011;38261;54.090;13.382;2023-01-01T00:06:42;5.00;;;3.70;;
52320;SDS011;38261;54.090;13.382;2023-01-01T00:08:05;5.70;;;3.30;;
52320;SDS011;38261;54.090;13.382;2023-01-01T00:09:28;8.03;;;3.47;;
52320;SDS011;38261;54.090;13.382;2023-01-01T00:11:09;8.97;;;3.30;;
52320;SDS011;38261;54.090;13.382;2023-01-01T00:12:31;4.90;;;2.73;;
52320;SDS011;38261;54.090;13.382;2023-01-01T00:13:54;5.03;;;2.57;;
52320;SDS011;38261;54.090;13.382;2023-01-01T00:15:16;6.80;;;2.97;;
52320;SDS011;38261;54.090;13.382;2023-01-01T00:16:40;5.33;;;3.10;;
52320;SDS011;38261;54.090;13.382;2023-01-01T00:18:02;5.40;;;2.70;;
52320;SDS011;38261;54.090;13.382;2023-01-01T00:19:24;8.37;;;3.00;;
52320;SDS011;38261;54.090;13.382;2023-01-01T00:20:46;6.77;;;2.87;;
52320;SDS011;38261;54.090;13.382;2023-01-01T00:22:08;3.97;;;2.57;;
52320;SDS011;38261;54.090;13.382;2023-01-01T00:23:50;7.90;;;2.87;;
52320;SDS011;38261;54.090;13.382;2023-01-01T00:25:12;7.43;;;2.83;;
52320;SDS011;38261;54.090;13.382;2023-01-01T00:26:34;8.10;;;3.10;;
52320;SDS011;38261;54.090;13.382;2023-01-01T00:27:57;8.10;;;4.57;;
52320;SDS011;38261;54.090;13.382;2023-01-01T00:29:19;7.43;;;3.13;;
52320;SDS011;38261;54.090;13.382;2023-01-01T00:31:47;9.20;;;4.57;;
52320;SDS011;38261;54.090;13.382;2023-01-01T00:33:09;4.20;;;2.57;;
52320;SDS011;38261;54.090;13.382;2023-01-01T00:34:32;5.40;;;2.40;;
52320;SDS011;38261;54.090;13.382;2023-01-01T00:35:54;4.93;;;2.97;;
52320;SDS011;38261;54.090;13.382;2023-01-01T00:37:16;6.13;;;2.57;;
52320;SDS011;38261;54.090;13.382;2023-01-01T00:38:39;8.50;;;3.03;;
52320;SDS011;38261;54.090;13.382;2023-01-01T00:40:02;6.33;;;2.90;;
52320;SDS011;38261;54.090;13.382;2023-01-01T00:41:24;7.27;;;2.90;;
52320;SDS011;38261;54.090;13.382;2023-01-01T00:42:46;4.87;;;3.50;;
52320;SDS011;38261;54.090;13.382;2023-01-01T00:44:08;5.67;;;2.67;;
52320;SDS011;38261;54.090;13.382;2023-01-01T00:45:31;6.67;;;3.17;;
52320;SDS011;38261;54.090;13.382;2023-01-01T00:46:53;6.00;;;3.07;;
52320;SDS011;38261;54.090;13.382;2023-01-01T00:48:15;5.10;;;3.00;;
52320;SDS011;38261;54.090;13.382;2023-01-01T00:49:37;7.03;;;2.70;;
52320;SDS011;38261;54.090;13.382;2023-01-01T00:50:59;6.93;;;3.60;;
52320;SDS011;38261;54.090;13.382;2023-01-01T00:52:22;6.77;;;3.10;;
52320;SDS011;38261;54.090;13.382;2023-01-01T00:53:44;8.93;;;3.30;;
52320;SDS011;38261;54.090;13.382;2023-01-01T00:55:06;6.97;;;2.60;;
52320;SDS011;38261;54.090;13.382;2023-01-01T00:56:29;5.10;;;3.10;;
52320;SDS011;38261;54.090;13.382;2023-01-01T00:57:51;8.90;;;2.90;;
52320;SDS011;38261;54.090;13.382;2023-01-01T00:59:13;8.40;;;3.07;;
52320;SDS011;38261;54.090;13.382;2023-01-01T01:00:36;7.50;;;2.97;;
52320;SDS011;38261;54.090;13.382;2023-01-01T01:01:58;6.20;;;3.57;;
52320;SDS011;38261;54.090;13.382;2023-01-01T01:03:21;5.30;;;3.60;;
52320;SDS011;38261;54.090;13.382;2023-01-01T01:04:49;6.67;;;3.00;;
52320;SDS011;38261;54.090;13.382;2023-01-01T01:06:12;8.37;;;3.50;;
52320;SDS011;38261;54.090;13.382;2023-01-01T01:07:37;5.80;;;3.00;;
52320;SDS011;38261;54.090;13.382;2023-01-01T01:08:59;8.70;;;3.73;;
52320;SDS011;38261;54.090;13.382;2023-01-01T01:10:21;5.27;;;3.13;;
52320;SDS011;38261;54.090;13.382;2023-01-01T01:11:44;9.43;;;3.67;;
52320;SDS011;38261;54.090;13.382;2023-01-01T01:13:06;7.87;;;3.73;;
52320;SDS011;38261;54.090;13.382;2023-01-01T01:14:28;4.03;;;3.27;;
52320;SDS011;38261;54.090;13.382;2023-01-01T01:15:50;10.30;;;4.60;;
52320;SDS011;38261;54.090;13.382;2023-01-01T01:17:16;6.70;;;3.13;;
52320;SDS011;38261;54.090;13.382;2023-01-01T01:18:39;9.43;;;3.13;;
52320;SDS011;38261;54.090;13.382;2023-01-01T01:20:02;8.40;;;3.13;;
52320;SDS011;38261;54.090;13.382;2023-01-01T01:21:25;9.20;;;3.53;;
52320;SDS011;38261;54.090;13.382;2023-01-01T01:22:49;4.80;;;3.03;;
52320;SDS011;38261;54.090;13.382;2023-01-01T01:24:11;5.90;;;2.80;;
52320;SDS011;38261;54.090;13.382;2023-01-01T01:25:33;8.67;;;2.90;;
52320;SDS011;38261;54.090;13.382;2023-01-01T01:26:55;4.30;;;2.53;;
52320;SDS011;38261;54.090;13.382;2023-01-01T01:28:19;15.93;;;3.33;;
52320;SDS011;38261;54.090;13.382;2023-01-01T01:29:41;3.80;;;2.60;;
52320;SDS011;38261;54.090;13.382;2023-01-01T01:31:03;7.80;;;2.70;;
52320;SDS011;38261;54.090;13.382;2023-01-01T01:32:25;6.30;;;2.93;;
52320;SDS011;38261;54.090;13.382;2023-01-01T01:33:48;6.57;;;3.13;;
52320;SDS011;38261;54.090;13.382;2023-01-01T01:35:10;3.83;;;2.50;;
52320;SDS011;38261;54.090;13.382;2023-01-01T01:36:33;9.57;;;2.57;;
52320;SDS011;38261;54.090;13.382;2023-01-01T01:37:55;8.80;;;2.63;;
52320;SDS011;38261;54.090;13.382;2023-01-01T01:39:17;6.20;;;2.60;;
52320;SDS011;38261;54.090;13.382;2023-01-01T01:40:43;4.30;;;2.47;;
52320;SDS011;38261;54.090;13.382;2023-01-01T01:42:05;9.27;;;2.33;;
52320;SDS011;38261;54.090;13.382;2023-01-01T01:44:57;4.60;;;2.50;;
52320;SDS011;38261;54.090;13.382;2023-01-01T01:46:25;7.43;;;2.90;;
52320;SDS011;38261;54.090;13.382;2023-01-01T01:47:52;5.67;;;2.37;;
52320;SDS011;38261;54.090;13.382;2023-01-01T01:49:24;7.07;;;2.90;;
52320;SDS011;38261;54.090;13.382;2023-01-01T01:50:51;5.03;;;2.23;;
52320;SDS011;38261;54.090;13.382;2023-01-01T01:52:16;5.97;;;2.73;;
52320;SDS011;38261;54.090;13.382;2023-01-01T01:53:40;8.43;;;2.23;;
52320;SDS011;38261;54.090;13.382;2023-01-01T01:55:07;5.60;;;3.47;;
52320;SDS011;38261;54.090;13.382;2023-01-01T01:56:34;7.23;;;2.90;;
52320;SDS011;38261;54.090;13.382;2023-01-01T01:58:06;9.17;;;2.80;;
52320;SDS011;38261;54.090;13.382;2023-01-01T01:59:32;4.27;;;2.53;;
52320;SDS011;38261;54.090;13.382;2023-01-01T02:00:59;6.83;;;2.70;;
52320;SDS011;38261;54.090;13.382;2023-01-01T02:02:27;6.07;;;2.73;;
52320;SDS011;38261;54.090;13.382;2023-01-01T02:03:59;11.73;;;3.27;;
52320;SDS011;38261;54.090;13.382;2023-01-01T02:05:22;12.90;;;2.83;;
52320;SDS011;38261;54.090;13.382;2023-01-01T02:06:46;8.10;;;3.07;;
52320;SDS011;38261;54.090;13.382;2023-01-01T02:08:08;5.03;;;2.90;;
52320;SDS011;38261;54.090;13.382;2023-01-01T02:09:35;8.37;;;2.70;;
52320;SDS011;38261;54.090;13.382;2023-01-01T02:10:57;7.67;;;3.83;;
52320;SDS011;38261;54.090;13.382;2023-01-01T02:12:19;7.03;;;2.70;;
52320;SDS011;38261;54.090;13.382;2023-01-01T02:13:41;11.20;;;3.27;;
52320;SDS011;38261;54.090;13.382;2023-01-01T02:15:04;5.30;;;3.00;;
52320;SDS011;38261;54.090;13.382;2023-01-01T02:18:12;9.53;;;3.00;;
52320;SDS011;38261;54.090;13.382;2023-01-01T02:19:42;12.67;;;3.57;;
52320;SDS011;38261;54.090;13.382;2023-01-01T02:21:16;10.57;;;3.47;;
52320;SDS011;38261;54.090;13.382;2023-01-01T02:31:09;8.93;;;2.97;;
52320;SDS011;38261;54.090;13.382;2023-01-01T02:34:20;9.50;;;3.00;;
52320;SDS011;38261;54.090;13.382;2023-01-01T02:35:51;6.43;;;3.03;;
52320;SDS011;38261;54.090;13.382;2023-01-01T02:37:18;4.67;;;2.50;;
52320;SDS011;38261;54.090;13.382;2023-01-01T02:38:43;7.63;;;3.13;;
52320;SDS011;38261;54.090;13.382;2023-01-01T02:40:08;5.80;;;2.83;;
52320;SDS011;38261;54.090;13.382;2023-01-01T02:41:49;10.40;;;3.70;;
52320;SDS011;38261;54.090;13.382;2023-01-01T02:43:15;11.80;;;3.37;;
52320;SDS011;38261;54.090;13.382;2023-01-01T02:44:46;10.30;;;3.20;;
52320;SDS011;38261;54.090;13.382;2023-01-01T02:46:11;9.40;;;3.33;;
52320;SDS011;38261;54.090;13.382;2023-01-01T02:47:33;13.20;;;2.77;;
52320;SDS011;38261;54.090;13.382;2023-01-01T02:48:56;7.60;;;2.67;;
52320;SDS011;38261;54.090;13.382;2023-01-01T02:50:21;6.23;;;2.30;;
52320;SDS011;38261;54.090;13.382;2023-01-01T02:53:17;8.47;;;2.93;;
52320;SDS011;38261;54.090;13.382;2023-01-01T03:00:09;4.10;;;2.73;;
52320;SDS011;38261;54.090;13.382;2023-01-01T03:01:48;9.10;;;2.50;;
52320;SDS011;38261;54.090;13.382;2023-01-01T03:04:00;8.37;;;2.73;;
52320;SDS011;38261;54.090;13.382;2023-01-01T03:09:46;12.40;;;2.97;;
52320;SDS011;38261;54.090;13.382;2023-01-01T03:11:09;13.30;;;3.37;;
52320;SDS011;38261;54.090;13.382;2023-01-01T03:12:57;12.07;;;3.07;;
52320;SDS011;38261;54.090;13.382;2023-01-01T03:14:30;8.33;;;2.90;;
52320;SDS011;38261;54.090;13.382;2023-01-01T03:16:16;8.70;;;2.83;;
52320;SDS011;38261;54.090;13.382;2023-01-01T03:19:16;7.33;;;3.57;;
52320;SDS011;38261;54.090;13.382;2023-01-01T03:20:40;7.43;;;3.33;;
52320;SDS011;38261;54.090;13.382;2023-01-01T03:22:08;6.37;;;3.10;;
52320;SDS011;38261;54.090;13.382;2023-01-01T03:23:34;12.30;;;3.63;;
52320;SDS011;38261;54.090;13.382;2023-01-01T03:25:18;7.57;;;3.10;;
52320;SDS011;38261;54.090;13.382;2023-01-01T03:26:44;8.13;;;3.20;;
52320;SDS011;38261;54.090;13.382;2023-01-01T03:28:11;9.77;;;3.33;;
52320;SDS011;38261;54.090;13.382;2023-01-01T03:29:38;7.47;;;2.73;;
52320;SDS011;38261;54.090;13.382;2023-01-01T03:31:02;8.50;;;2.77;;
52320;SDS011;38261;54.090;13.382;2023-01-01T03:32:35;8.10;;;3.27;;
52320;SDS011;38261;54.090;13.382;2023-01-01T03:34:46;20.50;;;3.43;;
52320;SDS011;38261;54.090;13.382;2023-01-01T03:36:11;11.40;;;3.67;;
52320;SDS011;38261;54.090;13.382;2023-01-01T03:37:37;15.33;;;2.97;;
52320;SDS011;38261;54.090;13.382;2023-01-01T03:39:04;10.10;;;3.03;;
52320;SDS011;38261;54.090;13.382;2023-01-01T03:40:31;7.67;;;3.47;;
52320;SDS011;38261;54.090;13.382;2023-01-01T03:42:03;14.23;;;2.90;;
52320;SDS011;38261;54.090;13.382;2023-01-01T03:45:12;14.83;;;4.03;;
52320;SDS011;38261;54.090;13.382;2023-01-01T03:46:37;8.47;;;3.50;;
52320;SDS011;38261;54.090;13.382;2023-01-01T03:47:59;15.13;;;4.23;;
52320;SDS011;38261;54.090;13.382;2023-01-01T03:49:22;8.93;;;3.90;;
52320;SDS011;38261;54.090;13.382;2023-01-01T03:50:48;15.87;;;4.30;;
52320;SDS011;38261;54.090;13.382;2023-01-01T03:53:46;14.70;;;4.20;;
52320;SDS011;38261;54.090;13.382;2023-01-01T03:56:44;12.33;;;4.43;;
52320;SDS011;38261;54.090;13.382;2023-01-01T04:01:25;8.90;;;4.00;;
52320;SDS011;38261;54.090;13.382;2023-01-01T04:04:15;19.63;;;4.93;;
52320;SDS011;38261;54.090;13.382;2023-01-01T04:05:39;9.83;;;4.23;;
52320;SDS011;38261;54.090;13.382;2023-01-01T04:07:03;8.50;;;4.90;;
52320;SDS011;38261;54.090;13.382;2023-01-01T04:08:35;18.90;;;4.87;;
52320;SDS011;38261;54.090;13.382;2023-01-01T04:09:59;10.97;;;4.40;;
52320;SDS011;38261;54.090;13.382;2023-01-01T04:11:23;6.27;;;3.83;;
52320;SDS011;38261;54.090;13.382;2023-01-01T04:13:07;9.53;;;4.90;;
52320;SDS011;38261;54.090;13.382;2023-01-01T04:14:33;10.63;;;4.80;;
52320;SDS011;38261;54.090;13.382;2023-01-01T04:15:56;8.27;;;4.03;;
52320;SDS011;38261;54.090;13.382;2023-01-01T04:17:18;15.37;;;4.20;;
52320;SDS011;38261;54.090;13.382;2023-01-01T04:18:41;9.30;;;5.20;;
52320;SDS011;38261;54.090;13.382;2023-01-01T04:20:03;15.10;;;5.10;;
52320;SDS011;38261;54.090;13.382;2023-01-01T04:21:26;13.80;;;5.30;;
52320;SDS011;38261;54.090;13.382;2023-01-01T04:22:48;8.33;;;4.70;;
52320;SDS011;38261;54.090;13.382;2023-01-01T04:24:10;12.73;;;5.27;;
52320;SDS011;38261;54.090;13.382;2023-01-01T04:25:32;16.67;;;4.60;;
52320;SDS011;38261;54.090;13.382;2023-01-01T04:26:54;12.23;;;5.27;;
52320;SDS011;38261;54.090;13.382;2023-01-01T04:28:16;12.60;;;5.07;;
52320;SDS011;38261;54.090;13.382;2023-01-01T04:29:40;22.13;;;4.77;;
52320;SDS011;38261;54.090;13.382;2023-01-01T04:31:02;21.40;;;5.23;;
52320;SDS011;38261;54.090;13.382;2023-01-01T04:32:24;13.23;;;4.90;;
52320;SDS011;38261;54.090;13.382;2023-01-01T04:33:46;12.17;;;4.60;;
52320;SDS011;38261;54.090;13.382;2023-01-01T04:35:09;10.37;;;4.60;;
52320;SDS011;38261;54.090;13.382;2023-01-01T04:36:33;11.00;;;5.00;;
52320;SDS011;38261;54.090;13.382;2023-01-01T04:37:56;14.13;;;5.53;;
52320;SDS011;38261;54.090;13.382;2023-01-01T04:39:19;19.23;;;5.13;;
52320;SDS011;38261;54.090;13.382;2023-01-01T04:40:41;12.03;;;4.77;;
52320;SDS011;38261;54.090;13.382;2023-01-01T04:42:03;9.03;;;5.10;;
52320;SDS011;38261;54.090;13.382;2023-01-01T04:43:26;10.60;;;5.30;;
52320;SDS011;38261;54.090;13.382;2023-01-01T04:44:48;12.67;;;5.07;;
52320;SDS011;38261;54.090;13.382;2023-01-01T04:46:10;14.27;;;5.27;;
52320;SDS011;38261;54.090;13.382;2023-01-01T04:47:32;12.70;;;4.77;;
52320;SDS011;38261;54.090;13.382;2023-01-01T04:48:54;11.37;;;5.37;;
52320;SDS011;38261;54.090;13.382;2023-01-01T04:50:17;12.53;;;5.17;;
52320;SDS011;38261;54.090;13.382;2023-01-01T04:51:39;13.30;;;5.07;;
52320;SDS011;38261;54.090;13.382;2023-01-01T04:53:01;12.43;;;5.30;;
52320;SDS011;38261;54.090;13.382;2023-01-01T04:54:23;10.57;;;4.77;;
52320;SDS011;38261;54.090;13.382;2023-01-01T04:55:45;16.60;;;4.90;;
52320;SDS011;38261;54.090;13.382;2023-01-01T04:57:07;12.23;;;4.50;;
52320;SDS011;38261;54.090;13.382;2023-01-01T04:58:30;13.27;;;4.83;;
52320;SDS011;38261;54.090;13.382;2023-01-01T04:59:53;13.17;;;4.80;;
52320;SDS011;38261;54.090;13.382;2023-01-01T05:01:17;10.97;;;4.50;;
52320;SDS011;38261;54.090;13.382;2023-01-01T05:02:41;10.90;;;5.10;;
52320;SDS011;38261;54.090;13.382;2023-01-01T05:04:03;18.90;;;5.47;;
52320;SDS011;38261;54.090;13.382;2023-01-01T05:05:25;12.80;;;5.00;;
52320;SDS011;38261;54.090;13.382;2023-01-01T05:06:47;10.57;;;5.37;;
52320;SDS011;38261;54.090;13.382;2023-01-01T05:08:09;11.60;;;5.30;;
52320;SDS011;38261;54.090;13.382;2023-01-01T05:09:31;18.53;;;5.50;;
52320;SDS011;38261;54.090;13.382;2023-01-01T05:10:58;10.30;;;4.90;;
52320;SDS011;38261;54.090;13.382;2023-01-01T05:12:24;11.77;;;5.23;;
52320;SDS011;38261;54.090;13.382;2023-01-01T05:13:47;10.40;;;5.00;;
52320;SDS011;38261;54.090;13.382;2023-01-01T05:15:10;9.50;;;4.80;;
52320;SDS011;38261;54.090;13.382;2023-01-01T05:16:35;19.70;;;5.27;;
52320;SDS011;38261;54.090;13.382;2023-01-01T05:17:59;12.00;;;3.70;;
52320;SDS011;38261;54.090;13.382;2023-01-01T05:19:21;8.63;;;4.80;;
52320;SDS011;38261;54.090;13.382;2023-01-01T05:20:43;8.37;;;5.00;;
52320;SDS011;38261;54.090;13.382;2023-01-01T05:22:05;9.73;;;4.63;;
52320;SDS011;38261;54.090;13.382;2023-01-01T05:23:31;9.90;;;4.50;;
52320;SDS011;38261;54.090;13.382;2023-01-01T05:24:54;14.67;;;4.73;;
52320;SDS011;38261;54.090;13.382;2023-01-01T05:26:17;12.17;;;4.50;;
52320;SDS011;38261;54.090;13.382;2023-01-01T05:27:41;11.10;;;5.10;;
52320;SDS011;38261;54.090;13.382;2023-01-01T05:29:03;12.30;;;4.40;;
52320;SDS011;38261;54.090;13.382;2023-01-01T05:30:39;14.43;;;4.83;;
52320;SDS011;38261;54.090;13.382;2023-01-01T05:32:01;12.80;;;5.47;;
52320;SDS011;38261;54.090;13.382;2023-01-01T05:33:23;11.07;;;5.23;;
52320;SDS011;38261;54.090;13.382;2023-01-01T05:34:45;15.40;;;4.90;;
52320;SDS011;38261;54.090;13.382;2023-01-01T05:36:08;11.03;;;4.17;;
52320;SDS011;38261;54.090;13.382;2023-01-01T05:37:35;16.60;;;5.10;;
52320;SDS011;38261;54.090;13.382;2023-01-01T05:38:57;11.37;;;5.33;;
52320;SDS011;38261;54.090;13.382;2023-01-01T05:40:20;13.77;;;5.70;;
52320;SDS011;38261;54.090;13.382;2023-01-01T05:41:43;12.17;;;4.73;;
52320;SDS011;38261;54.090;13.382;2023-01-01T05:43:05;9.17;;;4.60;;
52320;SDS011;38261;54.090;13.382;2023-01-01T05:44:28;18.83;;;6.17;;
52320;SDS011;38261;54.090;13.382;2023-01-01T05:45:58;15.17;;;4.57;;
52320;SDS011;38261;54.090;13.382;2023-01-01T05:47:23;14.17;;;5.33;;
52320;SDS011;38261;54.090;13.382;2023-01-01T05:48:51;10.57;;;4.97;;
52320;SDS011;38261;54.090;13.382;2023-01-01T05:50:14;17.10;;;5.03;;
52320;SDS011;38261;54.090;13.382;2023-01-01T05:51:36;11.73;;;5.30;;
52320;SDS011;38261;54.090;13.382;2023-01-01T05:52:57;12.10;;;5.23;;
52320;SDS011;38261;54.090;13.382;2023-01-01T05:54:20;9.77;;;4.37;;
52320;SDS011;38261;54.090;13.382;2023-01-01T05:55:42;17.27;;;4.50;;
52320;SDS011;38261;54.090;13.382;2023-01-01T05:57:04;11.37;;;5.53;;
52320;SDS011;38261;54.090;13.382;2023-01-01T05:58:26;14.73;;;5.10;;
52320;SDS011;38261;54.090;13.382;2023-01-01T05:59:50;11.50;;;4.73;;
52320;SDS011;38261;54.090;13.382;2023-01-01T06:01:25;10.90;;;5.30;;
52320;SDS011;38261;54.090;13.382;2023-01-01T06:02:48;12.33;;;4.57;;
52320;SDS011;38261;54.090;13.382;2023-01-01T06:04:12;9.20;;;4.40;;
52320;SDS011;38261;54.090;13.382;2023-01-01T06:05:37;12.93;;;4.80;;
52320;SDS011;38261;54.090;13.382;2023-01-01T06:06:59;7.80;;;4.20;;
52320;SDS011;38261;54.090;13.382;2023-01-01T06:08:22;18.40;;;5.10;;
52320;SDS011;38261;54.090;13.382;2023-01-01T06:09:44;13.60;;;4.53;;
52320;SDS011;38261;54.090;13.382;2023-01-01T06:11:07;14.30;;;4.90;;
52320;SDS011;38261;54.090;13.382;2023-01-01T06:12:31;11.20;;;4.60;;
52320;SDS011;38261;54.090;13.382;2023-01-01T06:13:54;14.40;;;4.50;;
52320;SDS011;38261;54.090;13.382;2023-01-01T06:15:17;8.67;;;3.97;;
52320;SDS011;38261;54.090;13.382;2023-01-01T06:16:39;11.70;;;4.27;;
52320;SDS011;38261;54.090;13.382;2023-01-01T06:18:01;15.50;;;4.97;;
52320;SDS011;38261;54.090;13.382;2023-01-01T06:19:23;13.13;;;4.77;;
52320;SDS011;38261;54.090;13.382;2023-01-01T06:20:45;11.17;;;5.10;;
52320;SDS011;38261;54.090;13.382;2023-01-01T06:22:08;13.30;;;4.73;;
52320;SDS011;38261;54.090;13.382;2023-01-01T06:23:30;13.93;;;4.70;;
52320;SDS011;38261;54.090;13.382;2023-01-01T06:24:52;11.10;;;5.20;;
52320;SDS011;38261;54.090;13.382;2023-01-01T06:26:18;7.87;;;4.73;;
52320;SDS011;38261;54.090;13.382;2023-01-01T06:27:45;12.27;;;4.57;;
52320;SDS011;38261;54.090;13.382;2023-01-01T06:29:07;11.63;;;5.93;;
52320;SDS011;38261;54.090;13.382;2023-01-01T06:30:29;10.50;;;4.90;;
52320;SDS011;38261;54.090;13.382;2023-01-01T06:31:52;9.30;;;4.30;;
52320;SDS011;38261;54.090;13.382;2023-01-01T06:33:14;9.77;;;4.83;;
52320;SDS011;38261;54.090;13.382;2023-01-01T06:34:36;10.13;;;4.20;;
52320;SDS011;38261;54.090;13.382;2023-01-01T06:35:58;8.80;;;3.60;;
52320;SDS011;38261;54.090;13.382;2023-01-01T06:37:23;8.70;;;4.30;;
52320;SDS011;38261;54.090;13.382;2023-01-01T06:38:47;12.27;;;4.00;;
52320;SDS011;38261;54.090;13.382;2023-01-01T06:40:10;9.00;;;3.90;;
52320;SDS011;38261;54.090;13.382;2023-01-01T06:41:32;14.50;;;4.13;;
52320;SDS011;38261;54.090;13.382;2023-01-01T06:42:54;9.63;;;3.53;;
52320;SDS011;38261;54.090;13.382;2023-01-01T06:44:16;6.50;;;3.50;;
52320;SDS011;38261;54.090;13.382;2023-01-01T06:45:38;7.77;;;3.30;;
52320;SDS011;38261;54.090;13.382;2023-01-01T06:47:01;5.80;;;3.53;;
52320;SDS011;38261;54.090;13.382;2023-01-01T06:48:23;10.67;;;3.90;;
52320;SDS011;38261;54.090;13.382;2023-01-01T06:49:45;9.30;;;3.93;;
52320;SDS011;38261;54.090;13.382;2023-01-01T06:51:08;12.70;;;4.60;;
52320;SDS011;38261;54.090;13.382;2023-01-01T06:52:41;11.60;;;3.93;;
52320;SDS011;38261;54.090;13.382;2023-01-01T06:54:03;6.10;;;4.00;;
52320;SDS011;38261;54.090;13.382;2023-01-01T06:55:26;12.97;;;3.67;;
52320;SDS011;38261;54.090;13.382;2023-01-01T06:56:48;11.17;;;4.00;;
52320;SDS011;38261;54.090;13.382;2023-01-01T06:58:10;7.93;;;3.93;;
52320;SDS011;38261;54.090;13.382;2023-01-01T06:59:32;4.30;;;3.40;;
52320;SDS011;38261;54.090;13.382;2023-01-01T07:01:02;10.17;;;3.70;;
52320;SDS011;38261;54.090;13.382;2023-01-01T07:02:29;7.30;;;3.70;;
52320;SDS011;38261;54.090;13.382;2023-01-01T07:03:52;9.10;;;4.40;;
52320;SDS011;38261;54.090;13.382;2023-01-01T07:05:16;10.93;;;4.57;;
52320;SDS011;38261;54.090;13.382;2023-01-01T07:06:38;8.47;;;3.40;;
52320;SDS011;38261;54.090;13.382;2023-01-01T07:08:00;9.70;;;3.90;;
52320;SDS011;38261;54.090;13.382;2023-01-01T07:09:22;9.13;;;3.60;;
52320;SDS011;38261;54.090;13.382;2023-01-01T07:10:44;12.83;;;4.63;;
52320;SDS011;38261;54.090;13.382;2023-01-01T07:12:06;21.47;;;4.57;;
52320;SDS011;38261;54.090;13.382;2023-01-01T07:13:29;10.50;;;4.40;;
52320;SDS011;38261;54.090;13.382;2023-01-01T07:14:52;11.43;;;4.40;;
52320;SDS011;38261;54.090;13.382;2023-01-01T07:16:14;12.90;;;4.77;;
52320;SDS011;38261;54.090;13.382;2023-01-01T07:17:36;17.10;;;5.07;;
52320;SDS011;38261;54.090;13.382;2023-01-01T07:18:58;12.20;;;4.80;;
52320;SDS011;38261;54.090;13.382;2023-01-01T07:20:21;13.77;;;5.10;;
52320;SDS011;38261;54.090;13.382;2023-01-01T07:21:53;17.50;;;4.90;;
52320;SDS011;38261;54.090;13.382;2023-01-01T07:23:16;10.47;;;4.87;;
52320;SDS011;38261;54.090;13.382;2023-01-01T07:24:38;14.50;;;4.60;;
52320;SDS011;38261;54.090;13.382;2023-01-01T07:26:00;15.30;;;4.70;;
52320;SDS011;38261;54.090;13.382;2023-01-01T07:27:22;15.33;;;5.13;;
52320;SDS011;38261;54.090;13.382;2023-01-01T07:28:44;12.60;;;5.33;;
52320;SDS011;38261;54.090;13.382;2023-01-01T07:30:06;11.70;;;5.40;;
52320;SDS011;38261;54.090;13.382;2023-01-01T07:31:29;11.83;;;4.73;;
52320;SDS011;38261;54.090;13.382;2023-01-01T07:32:54;13.00;;;5.13;;
52320;SDS011;38261;54.090;13.382;2023-01-01T07:34:17;10.30;;;4.33;;
52320;SDS011;38261;54.090;13.382;2023-01-01T07:35:40;23.27;;;5.57;;
52320;SDS011;38261;54.090;13.382;2023-01-01T07:37:02;14.47;;;5.30;;
52320;SDS011;38261;54.090;13.382;2023-01-01T07:38:24;14.43;;;4.23;;
52320;SDS011;38261;54.090;13.382;2023-01-01T07:39:46;10.10;;;4.17;;
52320;SDS011;38261;54.090;13.382;2023-01-01T07:41:08;12.93;;;5.23;;
52320;SDS011;38261;54.090;13.382;2023-01-01T07:42:30;13.73;;;4.80;;
52320;SDS011;38261;54.090;13.382;2023-01-01T07:43:52;9.67;;;4.47;;
52320;SDS011;38261;54.090;13.382;2023-01-01T07:45:14;8.17;;;3.83;;
52320;SDS011;38261;54.090;13.382;2023-01-01T07:46:37;12.67;;;4.73;;
52320;SDS011;38261;54.090;13.382;2023-01-01T07:48:00;7.27;;;4.50;;
52320;SDS011;38261;54.090;13.382;2023-01-01T07:49:22;11.97;;;4.60;;
52320;SDS011;38261;54.090;13.382;2023-01-01T07:50:44;17.40;;;4.07;;
52320;SDS011;38261;54.090;13.382;2023-01-01T07:52:06;8.40;;;4.13;;
52320;SDS011;38261;54.090;13.382;2023-01-01T07:53:28;19.93;;;4.30;;
52320;SDS011;38261;54.090;13.382;2023-01-01T07:54:50;11.47;;;4.37;;
52320;SDS011;38261;54.090;13.382;2023-01-01T07:56:13;12.60;;;4.80;;
52320;SDS011;38261;54.090;13.382;2023-01-01T07:57:35;10.57;;;4.20;;
52320;SDS011;38261;54.090;13.382;2023-01-01T07:58:57;9.00;;;4.33;;
52320;SDS011;38261;54.090;13.382;2023-01-01T08:00:20;10.20;;;4.10;;
52320;SDS011;38261;54.090;13.382;2023-01-01T08:01:42;8.20;;;3.90;;
52320;SDS011;38261;54.090;13.382;2023-01-01T08:03:04;10.40;;;4.40;;
52320;SDS011;38261;54.090;13.382;2023-01-01T08:04:28;8.07;;;4.00;;
52320;SDS011;38261;54.090;13.382;2023-01-01T08:05:50;9.53;;;3.83;;
52320;SDS011;38261;54.090;13.382;2023-01-01T08:07:12;9.33;;;3.90;;
52320;SDS011;38261;54.090;13.382;2023-01-01T08:08:34;12.10;;;4.13;;
52320;SDS011;38261;54.090;13.382;2023-01-01T08:09:57;9.10;;;3.23;;
52320;SDS011;38261;54.090;13.382;2023-01-01T08:11:19;11.73;;;3.80;;
52320;SDS011;38261;54.090;13.382;2023-01-01T08:12:41;14.73;;;3.60;;
52320;SDS011;38261;54.090;13.382;2023-01-01T08:14:03;9.73;;;4.07;;
52320;SDS011;38261;54.090;13.382;2023-01-01T08:15:25;12.70;;;4.10;;
52320;SDS011;38261;54.090;13.382;2023-01-01T08:16:47;9.60;;;3.70;;
52320;SDS011;38261;54.090;13.382;2023-01-01T08:18:09;7.80;;;3.43;;
52320;SDS011;38261;54.090;13.382;2023-01-01T08:19:31;10.03;;;4.47;;
52320;SDS011;38261;54.090;13.382;2023-01-01T08:20:53;19.20;;;4.30;;
52320;SDS011;38261;54.090;13.382;2023-01-01T08:22:17;7.10;;;4.17;;
52320;SDS011;38261;54.090;13.382;2023-01-01T08:23:39;6.33;;;3.57;;
52320;SDS011;38261;54.090;13.382;2023-01-01T08:25:02;12.83;;;3.80;;
52320;SDS011;38261;54.090;13.382;2023-01-01T08:26:28;11.63;;;3.67;;
52320;SDS011;38261;54.090;13.382;2023-01-01T08:27:55;9.07;;;3.50;;
52320;SDS011;38261;54.090;13.382;2023-01-01T08:29:17;10.50;;;3.90;;
52320;SDS011;38261;54.090;13.382;2023-01-01T08:30:39;11.50;;;3.77;;
52320;SDS011;38261;54.090;13.382;2023-01-01T08:32:01;11.63;;;3.67;;
52320;SDS011;38261;54.090;13.382;2023-01-01T08:33:24;11.43;;;3.67;;
52320;SDS011;38261;54.090;13.382;2023-01-01T08:34:46;6.77;;;3.40;;
52320;SDS011;38261;54.090;13.382;2023-01-01T08:36:09;10.40;;;3.60;;
52320;SDS011;38261;54.090;13.382;2023-01-01T08:37:33;12.73;;;3.60;;
52320;SDS011;38261;54.090;13.382;2023-01-01T08:38:55;8.20;;;3.23;;
52320;SDS011;38261;54.090;13.382;2023-01-01T08:40:18;10.30;;;3.03;;
52320;SDS011;38261;54.090;13.382;2023-01-01T08:41:40;11.47;;;4.00;;
52320;SDS011;38261;54.090;13.382;2023-01-01T08:43:02;11.13;;;3.17;;
52320;SDS011;38261;54.090;13.382;2023-01-01T08:44:25;7.90;;;3.73;;
52320;SDS011;38261;54.090;13.382;2023-01-01T08:45:47;8.43;;;3.00;;
52320;SDS011;38261;54.090;13.382;2023-01-01T08:47:18;10.20;;;3.30;;
52320;SDS011;38261;54.090;13.382;2023-01-01T08:48:42;7.63;;;3.70;;
52320;SDS011;38261;54.090;13.382;2023-01-01T08:50:04;8.77;;;3.50;;
52320;SDS011;38261;54.090;13.382;2023-01-01T08:51:26;8.27;;;3.63;;
52320;SDS011;38261;54.090;13.382;2023-01-01T08:52:48;10.73;;;3.57;;
52320;SDS011;38261;54.090;13.382;2023-01-01T08:54:10;8.30;;;3.03;;